sensor_id;sensor_type;location;lat;lon;timestamp;temperature;humidity
21267;DHT22;10791;53.108;18.326;2023-10-19T00:00:55;3.10;99.90
21267;DHT22;10791;53.108;18.326;2023-10-19T00:06:11;3.00;99.90
21267;DHT22;10791;53.108;18.326;2023-10-19T00:11:17;2.80;99.90
21267;DHT22;10791;53.108;18.326;2023-10-19T00:16:28;2.70;99.90
21267;DHT22;10791;53.108;18.326;2023-10-19T00:21:38;2.60;99.90
21267;DHT22;10791;53.108;18.326;2023-10-19T00:27:02;2.50;99.90
21267;DHT22;10791;53.108;18.326;2023-10-19T00:32:22;2.50;99.90
21267;DHT22;10791;53.108;18.326;2023-10-19T00:37:27;2.40;99.90
21267;DHT22;10791;53.108;18.326;2023-10-19T00:42:32;2.30;99.90
21267;DHT22;10791;53.108;18.326;2023-10-19T00:47:35;2.20;99.90
21267;DHT22;10791;53.108;18.326;2023-10-19T00:52:43;2.10;99.90
21267;DHT22;10791;53.108;18.326;2023-10-19T00:57:53;2.00;99.90
21267;DHT22;10791;53.108;18.326;2023-10-19T01:02:58;2.00;99.90
21267;DHT22;10791;53.108;18.326;2023-10-19T01:08:08;2.00;99.90
21267;DHT22;10791;53.108;18.326;2023-10-19T01:13:35;2.00;99.90
21267;DHT22;10791;53.108;18.326;2023-10-19T01:18:38;2.00;99.90
21267;DHT22;10791;53.108;18.326;2023-10-19T01:23:46;1.90;99.90
21267;DHT22;10791;53.108;18.326;2023-10-19T01:28:50;1.90;99.90
21267;DHT22;10791;53.108;18.326;2023-10-19T01:33:57;1.80;99.90
21267;DHT22;10791;53.108;18.326;2023-10-19T01:39:01;1.80;99.90
21267;DHT22;10791;53.108;18.326;2023-10-19T01:44:12;1.80;99.90
21267;DHT22;10791;53.108;18.326;2023-10-19T01:49:18;1.70;99.90
21267;DHT22;10791;53.108;18.326;2023-10-19T01:54:29;1.60;99.90
21267;DHT22;10791;53.108;18.326;2023-10-19T01:59:32;1.60;99.90
21267;DHT22;10791;53.108;18.326;2023-10-19T02:04:37;1.60;99.90
21267;DHT22;10791;53.108;18.326;2023-10-19T02:09:43;1.50;99.90
21267;DHT22;10791;53.108;18.326;2023-10-19T02:14:46;1.40;99.90
21267;DHT22;10791;53.108;18.326;2023-10-19T02:19:50;1.30;99.90
21267;DHT22;10791;53.108;18.326;2023-10-19T02:24:53;1.20;99.90
21267;DHT22;10791;53.108;18.326;2023-10-19T02:29:56;1.10;99.90
21267;DHT22;10791;53.108;18.326;2023-10-19T02:34:59;1.00;99.90
21267;DHT22;10791;53.108;18.326;2023-10-19T02:40:04;1.10;99.90
21267;DHT22;10791;53.108;18.326;2023-10-19T02:45:16;1.10;99.90
21267;DHT22;10791;53.108;18.326;2023-10-19T02:50:19;1.10;99.90
21267;DHT22;10791;53.108;18.326;2023-10-19T02:55:26;1.10;99.90
21267;DHT22;10791;53.108;18.326;2023-10-19T03:00:29;1.00;99.90
21267;DHT22;10791;53.108;18.326;2023-10-19T03:05:36;1.00;99.90
21267;DHT22;10791;53.108;18.326;2023-10-19T03:10:39;1.10;99.90
21267;DHT22;10791;53.108;18.326;2023-10-19T03:15:45;1.10;99.90
21267;DHT22;10791;53.108;18.326;2023-10-19T03:20:48;1.10;99.90
21267;DHT22;10791;53.108;18.326;2023-10-19T03:25:56;1.00;99.90
21267;DHT22;10791;53.108;18.326;2023-10-19T03:31:19;0.80;99.90
21267;DHT22;10791;53.108;18.326;2023-10-19T03:36:24;0.80;99.90
21267;DHT22;10791;53.108;18.326;2023-10-19T03:41:27;0.90;99.90
21267;DHT22;10791;53.108;18.326;2023-10-19T03:46:31;0.90;99.90
21267;DHT22;10791;53.108;18.326;2023-10-19T03:51:34;0.90;99.90
21267;DHT22;10791;53.108;18.326;2023-10-19T03:57:00;1.00;99.90
21267;DHT22;10791;53.108;18.326;2023-10-19T04:02:08;1.10;99.90
21267;DHT22;10791;53.108;18.326;2023-10-19T04:07:19;1.10;99.90
21267;DHT22;10791;53.108;18.326;2023-10-19T04:12:28;1.10;99.90
21267;DHT22;10791;53.108;18.326;2023-10-19T04:17:32;1.10;99.90
21267;DHT22;10791;53.108;18.326;2023-10-19T04:22:36;1.00;99.90
21267;DHT22;10791;53.108;18.326;2023-10-19T04:27:40;0.90;99.90
21267;DHT22;10791;53.108;18.326;2023-10-19T04:32:45;1.00;99.90
21267;DHT22;10791;53.108;18.326;2023-10-19T04:37:50;1.00;99.90
21267;DHT22;10791;53.108;18.326;2023-10-19T04:42:55;1.10;99.90
21267;DHT22;10791;53.108;18.326;2023-10-19T04:47:58;1.20;99.90
21267;DHT22;10791;53.108;18.326;2023-10-19T04:53:01;1.30;99.90
21267;DHT22;10791;53.108;18.326;2023-10-19T04:58:05;1.30;99.90
21267;DHT22;10791;53.108;18.326;2023-10-19T05:03:08;1.20;99.90
21267;DHT22;10791;53.108;18.326;2023-10-19T05:08:12;1.10;99.90
21267;DHT22;10791;53.108;18.326;2023-10-19T05:13:15;1.00;99.90
21267;DHT22;10791;53.108;18.326;2023-10-19T05:18:19;1.00;99.90
21267;DHT22;10791;53.108;18.326;2023-10-19T05:23:23;1.00;99.90
21267;DHT22;10791;53.108;18.326;2023-10-19T05:28:27;1.10;99.90
21267;DHT22;10791;53.108;18.326;2023-10-19T05:33:30;1.10;99.90
21267;DHT22;10791;53.108;18.326;2023-10-19T05:38:34;1.20;99.90
21267;DHT22;10791;53.108;18.326;2023-10-19T05:43:38;1.10;99.90
21267;DHT22;10791;53.108;18.326;2023-10-19T05:48:41;1.10;99.90
21267;DHT22;10791;53.108;18.326;2023-10-19T05:53:44;1.10;99.90
21267;DHT22;10791;53.108;18.326;2023-10-19T05:58:47;1.20;99.90
21267;DHT22;10791;53.108;18.326;2023-10-19T06:03:53;1.30;99.90
21267;DHT22;10791;53.108;18.326;2023-10-19T06:08:57;1.40;99.90
21267;DHT22;10791;53.108;18.326;2023-10-19T06:14:00;1.50;99.90
21267;DHT22;10791;53.108;18.326;2023-10-19T06:19:03;1.70;99.90
21267;DHT22;10791;53.108;18.326;2023-10-19T06:24:08;1.90;99.90
21267;DHT22;10791;53.108;18.326;2023-10-19T06:29:14;2.10;99.90
21267;DHT22;10791;53.108;18.326;2023-10-19T06:34:17;2.30;99.90
21267;DHT22;10791;53.108;18.326;2023-10-19T06:39:21;2.50;99.90
21267;DHT22;10791;53.108;18.326;2023-10-19T06:44:24;2.70;99.90
21267;DHT22;10791;53.108;18.326;2023-10-19T06:49:29;2.90;99.90
21267;DHT22;10791;53.108;18.326;2023-10-19T06:54:33;3.10;99.90
21267;DHT22;10791;53.108;18.326;2023-10-19T06:59:36;3.30;99.90
21267;DHT22;10791;53.108;18.326;2023-10-19T07:04:39;3.50;99.90
21267;DHT22;10791;53.108;18.326;2023-10-19T07:09:43;3.60;99.90
21267;DHT22;10791;53.108;18.326;2023-10-19T07:14:46;3.70;99.90
21267;DHT22;10791;53.108;18.326;2023-10-19T07:19:49;3.90;99.90
21267;DHT22;10791;53.108;18.326;2023-10-19T07:24:52;4.10;99.90
21267;DHT22;10791;53.108;18.326;2023-10-19T07:29:58;4.30;99.90
21267;DHT22;10791;53.108;18.326;2023-10-19T07:35:01;4.60;99.90
21267;DHT22;10791;53.108;18.326;2023-10-19T07:40:07;4.90;99.90
21267;DHT22;10791;53.108;18.326;2023-10-19T07:45:16;5.20;99.90
21267;DHT22;10791;53.108;18.326;2023-10-19T07:50:20;5.40;99.90
21267;DHT22;10791;53.108;18.326;2023-10-19T07:55:25;5.40;99.90
21267;DHT22;10791;53.108;18.326;2023-10-19T08:00:29;5.60;99.90
21267;DHT22;10791;53.108;18.326;2023-10-19T08:05:33;5.70;99.90
21267;DHT22;10791;53.108;18.326;2023-10-19T08:10:39;5.80;99.90
21267;DHT22;10791;53.108;18.326;2023-10-19T08:15:42;6.00;99.90
21267;DHT22;10791;53.108;18.326;2023-10-19T08:20:45;6.20;99.90
21267;DHT22;10791;53.108;18.326;2023-10-19T08:25:48;6.40;99.90
21267;DHT22;10791;53.108;18.326;2023-10-19T08:30:59;6.60;99.90
21267;DHT22;10791;53.108;18.326;2023-10-19T08:36:05;6.70;99.90
21267;DHT22;10791;53.108;18.326;2023-10-19T08:41:08;6.80;99.90
21267;DHT22;10791;53.108;18.326;2023-10-19T08:46:12;7.00;99.90
21267;DHT22;10791;53.108;18.326;2023-10-19T08:51:16;7.20;99.90
21267;DHT22;10791;53.108;18.326;2023-10-19T08:56:20;7.40;99.90
21267;DHT22;10791;53.108;18.326;2023-10-19T09:01:28;7.60;99.90
21267;DHT22;10791;53.108;18.326;2023-10-19T09:06:35;7.70;99.90
21267;DHT22;10791;53.108;18.326;2023-10-19T09:11:45;7.90;99.90
21267;DHT22;10791;53.108;18.326;2023-10-19T09:16:58;7.90;99.90
21267;DHT22;10791;53.108;18.326;2023-10-19T09:22:02;8.20;99.90
21267;DHT22;10791;53.108;18.326;2023-10-19T09:27:10;8.30;99.90
21267;DHT22;10791;53.108;18.326;2023-10-19T09:32:16;8.30;99.90
21267;DHT22;10791;53.108;18.326;2023-10-19T09:37:21;8.40;99.90
21267;DHT22;10791;53.108;18.326;2023-10-19T09:42:24;8.50;99.90
21267;DHT22;10791;53.108;18.326;2023-10-19T09:47:38;8.40;99.90
21267;DHT22;10791;53.108;18.326;2023-10-19T09:52:45;8.50;99.90
21267;DHT22;10791;53.108;18.326;2023-10-19T10:03:42;8.40;99.90
21267;DHT22;10791;53.108;18.326;2023-10-19T10:08:47;8.40;99.90
21267;DHT22;10791;53.108;18.326;2023-10-19T10:13:52;8.50;99.90
21267;DHT22;10791;53.108;18.326;2023-10-19T10:18:57;8.60;99.90
21267;DHT22;10791;53.108;18.326;2023-10-19T10:24:04;8.60;99.90
21267;DHT22;10791;53.108;18.326;2023-10-19T10:29:18;8.80;99.90
21267;DHT22;10791;53.108;18.326;2023-10-19T10:39:39;9.20;99.90
21267;DHT22;10791;53.108;18.326;2023-10-19T10:44:48;9.30;99.90
21267;DHT22;10791;53.108;18.326;2023-10-19T10:49:59;9.40;99.90
21267;DHT22;10791;53.108;18.326;2023-10-19T10:55:13;9.40;99.90
21267;DHT22;10791;53.108;18.326;2023-10-19T11:00:17;9.30;99.90
21267;DHT22;10791;53.108;18.326;2023-10-19T11:05:26;9.20;99.90
21267;DHT22;10791;53.108;18.326;2023-10-19T11:10:30;9.20;99.90
21267;DHT22;10791;53.108;18.326;2023-10-19T11:15:34;9.30;99.90
21267;DHT22;10791;53.108;18.326;2023-10-19T11:20:37;9.40;99.90
21267;DHT22;10791;53.108;18.326;2023-10-19T11:25:41;9.40;99.90
21267;DHT22;10791;53.108;18.326;2023-10-19T11:30:44;9.50;99.90
21267;DHT22;10791;53.108;18.326;2023-10-19T11:35:51;9.60;99.90
21267;DHT22;10791;53.108;18.326;2023-10-19T11:40:55;9.60;99.90
21267;DHT22;10791;53.108;18.326;2023-10-19T11:45:58;9.60;99.90
21267;DHT22;10791;53.108;18.326;2023-10-19T11:51:03;9.60;99.90
21267;DHT22;10791;53.108;18.326;2023-10-19T11:56:08;9.70;99.90
21267;DHT22;10791;53.108;18.326;2023-10-19T12:01:12;9.80;99.90
21267;DHT22;10791;53.108;18.326;2023-10-19T12:06:15;9.80;99.90
21267;DHT22;10791;53.108;18.326;2023-10-19T12:11:22;9.80;99.90
21267;DHT22;10791;53.108;18.326;2023-10-19T12:16:26;9.90;99.90
21267;DHT22;10791;53.108;18.326;2023-10-19T12:21:30;9.90;99.90
21267;DHT22;10791;53.108;18.326;2023-10-19T12:26:33;9.90;99.90
21267;DHT22;10791;53.108;18.326;2023-10-19T12:31:37;9.90;99.90
21267;DHT22;10791;53.108;18.326;2023-10-19T12:36:42;9.80;99.90
21267;DHT22;10791;53.108;18.326;2023-10-19T12:41:49;9.90;99.90
21267;DHT22;10791;53.108;18.326;2023-10-19T12:46:52;9.90;99.90
21267;DHT22;10791;53.108;18.326;2023-10-19T12:51:55;9.90;99.90
21267;DHT22;10791;53.108;18.326;2023-10-19T12:56:58;10.10;99.90
21267;DHT22;10791;53.108;18.326;2023-10-19T13:02:01;10.10;99.90
21267;DHT22;10791;53.108;18.326;2023-10-19T13:07:06;10.10;99.90
21267;DHT22;10791;53.108;18.326;2023-10-19T13:12:10;10.00;99.90
21267;DHT22;10791;53.108;18.326;2023-10-19T13:17:15;10.00;99.90
21267;DHT22;10791;53.108;18.326;2023-10-19T13:22:18;9.90;99.90
21267;DHT22;10791;53.108;18.326;2023-10-19T13:27:21;9.90;99.90
21267;DHT22;10791;53.108;18.326;2023-10-19T13:32:28;9.90;99.90
21267;DHT22;10791;53.108;18.326;2023-10-19T13:37:33;9.90;99.90
21267;DHT22;10791;53.108;18.326;2023-10-19T13:42:36;9.80;99.90
21267;DHT22;10791;53.108;18.326;2023-10-19T13:47:39;9.80;99.90
21267;DHT22;10791;53.108;18.326;2023-10-19T13:52:42;9.90;99.90
21267;DHT22;10791;53.108;18.326;2023-10-19T13:57:47;9.90;99.90
21267;DHT22;10791;53.108;18.326;2023-10-19T14:02:51;9.90;99.90
21267;DHT22;10791;53.108;18.326;2023-10-19T14:07:55;9.80;99.90
21267;DHT22;10791;53.108;18.326;2023-10-19T14:12:59;9.60;99.90
21267;DHT22;10791;53.108;18.326;2023-10-19T14:18:02;9.50;99.90
21267;DHT22;10791;53.108;18.326;2023-10-19T14:23:06;9.40;99.90
21267;DHT22;10791;53.108;18.326;2023-10-19T14:28:09;9.40;99.90
21267;DHT22;10791;53.108;18.326;2023-10-19T14:33:13;9.40;99.90
21267;DHT22;10791;53.108;18.326;2023-10-19T14:38:16;9.30;99.90
21267;DHT22;10791;53.108;18.326;2023-10-19T14:43:19;9.30;99.90
21267;DHT22;10791;53.108;18.326;2023-10-19T14:48:23;9.30;99.90
21267;DHT22;10791;53.108;18.326;2023-10-19T14:53:26;9.10;99.90
21267;DHT22;10791;53.108;18.326;2023-10-19T14:58:30;9.10;99.90
21267;DHT22;10791;53.108;18.326;2023-10-19T15:03:34;9.00;99.90
21267;DHT22;10791;53.108;18.326;2023-10-19T15:08:38;8.90;99.90
21267;DHT22;10791;53.108;18.326;2023-10-19T15:13:41;8.90;99.90
21267;DHT22;10791;53.108;18.326;2023-10-19T15:18:44;8.90;99.90
21267;DHT22;10791;53.108;18.326;2023-10-19T15:23:47;8.80;99.90
21267;DHT22;10791;53.108;18.326;2023-10-19T15:28:52;8.90;99.90
21267;DHT22;10791;53.108;18.326;2023-10-19T15:33:57;8.70;99.90
21267;DHT22;10791;53.108;18.326;2023-10-19T15:39:01;8.80;99.90
21267;DHT22;10791;53.108;18.326;2023-10-19T15:44:04;8.70;99.90
21267;DHT22;10791;53.108;18.326;2023-10-19T15:49:09;8.70;99.90
21267;DHT22;10791;53.108;18.326;2023-10-19T15:54:15;8.60;99.90
21267;DHT22;10791;53.108;18.326;2023-10-19T15:59:19;8.70;99.90
21267;DHT22;10791;53.108;18.326;2023-10-19T16:04:22;8.60;99.90
21267;DHT22;10791;53.108;18.326;2023-10-19T16:09:26;8.50;99.90
21267;DHT22;10791;53.108;18.326;2023-10-19T16:14:37;8.50;99.90
21267;DHT22;10791;53.108;18.326;2023-10-19T16:19:44;8.50;99.90
21267;DHT22;10791;53.108;18.326;2023-10-19T16:24:50;8.50;99.90
21267;DHT22;10791;53.108;18.326;2023-10-19T16:29:57;8.40;99.90
21267;DHT22;10791;53.108;18.326;2023-10-19T16:35:04;8.40;99.90
21267;DHT22;10791;53.108;18.326;2023-10-19T16:40:09;8.40;99.90
21267;DHT22;10791;53.108;18.326;2023-10-19T16:45:23;8.30;99.90
21267;DHT22;10791;53.108;18.326;2023-10-19T16:50:28;8.30;99.90
21267;DHT22;10791;53.108;18.326;2023-10-19T16:55:42;8.30;99.90
21267;DHT22;10791;53.108;18.326;2023-10-19T17:00:48;8.30;99.90
21267;DHT22;10791;53.108;18.326;2023-10-19T17:05:55;8.30;99.90
21267;DHT22;10791;53.108;18.326;2023-10-19T17:11:05;8.20;99.90
21267;DHT22;10791;53.108;18.326;2023-10-19T17:16:18;8.30;99.90
21267;DHT22;10791;53.108;18.326;2023-10-19T17:21:24;8.20;99.90
21267;DHT22;10791;53.108;18.326;2023-10-19T17:26:33;8.20;99.90
21267;DHT22;10791;53.108;18.326;2023-10-19T17:31:56;8.20;99.90
21267;DHT22;10791;53.108;18.326;2023-10-19T17:37:02;8.10;99.90
21267;DHT22;10791;53.108;18.326;2023-10-19T17:42:10;8.10;99.90
21267;DHT22;10791;53.108;18.326;2023-10-19T17:47:23;8.10;99.90
21267;DHT22;10791;53.108;18.326;2023-10-19T17:52:31;7.90;99.90
21267;DHT22;10791;53.108;18.326;2023-10-19T17:57:39;7.90;99.90
21267;DHT22;10791;53.108;18.326;2023-10-19T18:02:48;7.80;99.90
21267;DHT22;10791;53.108;18.326;2023-10-19T18:07:58;7.80;99.90
21267;DHT22;10791;53.108;18.326;2023-10-19T18:13:04;7.70;99.90
21267;DHT22;10791;53.108;18.326;2023-10-19T18:18:14;7.60;99.90
21267;DHT22;10791;53.108;18.326;2023-10-19T18:23:24;7.50;99.90
21267;DHT22;10791;53.108;18.326;2023-10-19T18:28:31;7.40;99.90
21267;DHT22;10791;53.108;18.326;2023-10-19T18:33:38;7.50;99.90
21267;DHT22;10791;53.108;18.326;2023-10-19T18:38:45;7.30;99.90
21267;DHT22;10791;53.108;18.326;2023-10-19T18:43:53;7.30;99.90
21267;DHT22;10791;53.108;18.326;2023-10-19T18:49:00;7.20;99.90
21267;DHT22;10791;53.108;18.326;2023-10-19T18:54:14;7.20;99.90
21267;DHT22;10791;53.108;18.326;2023-10-19T18:59:20;7.20;99.90
21267;DHT22;10791;53.108;18.326;2023-10-19T19:04:24;7.20;99.90
21267;DHT22;10791;53.108;18.326;2023-10-19T19:09:29;7.20;99.90
21267;DHT22;10791;53.108;18.326;2023-10-19T19:14:34;7.10;99.90
21267;DHT22;10791;53.108;18.326;2023-10-19T19:19:37;7.10;99.90
21267;DHT22;10791;53.108;18.326;2023-10-19T19:24:40;7.10;99.90
21267;DHT22;10791;53.108;18.326;2023-10-19T19:29:46;7.00;99.90
21267;DHT22;10791;53.108;18.326;2023-10-19T19:34:50;6.80;99.90
21267;DHT22;10791;53.108;18.326;2023-10-19T19:39:53;6.80;99.90
21267;DHT22;10791;53.108;18.326;2023-10-19T19:44:58;6.80;99.90
21267;DHT22;10791;53.108;18.326;2023-10-19T19:50:02;6.70;99.90
21267;DHT22;10791;53.108;18.326;2023-10-19T19:55:07;6.80;99.90
21267;DHT22;10791;53.108;18.326;2023-10-19T20:00:12;6.70;99.90
21267;DHT22;10791;53.108;18.326;2023-10-19T20:05:27;6.60;99.90
21267;DHT22;10791;53.108;18.326;2023-10-19T20:10:42;6.60;99.90
21267;DHT22;10791;53.108;18.326;2023-10-19T20:15:45;6.70;99.90
21267;DHT22;10791;53.108;18.326;2023-10-19T20:20:49;6.70;99.90
21267;DHT22;10791;53.108;18.326;2023-10-19T20:25:53;6.70;99.90
21267;DHT22;10791;53.108;18.326;2023-10-19T20:30:59;6.70;99.90
21267;DHT22;10791;53.108;18.326;2023-10-19T20:36:03;6.70;99.90
21267;DHT22;10791;53.108;18.326;2023-10-19T20:41:07;6.60;99.90
21267;DHT22;10791;53.108;18.326;2023-10-19T20:46:12;6.70;99.90
21267;DHT22;10791;53.108;18.326;2023-10-19T20:51:16;6.60;99.90
21267;DHT22;10791;53.108;18.326;2023-10-19T20:56:20;6.70;99.90
21267;DHT22;10791;53.108;18.326;2023-10-19T21:01:24;6.60;99.90
21267;DHT22;10791;53.108;18.326;2023-10-19T21:06:27;6.60;99.90
21267;DHT22;10791;53.108;18.326;2023-10-19T21:11:35;6.60;99.90
21267;DHT22;10791;53.108;18.326;2023-10-19T21:16:38;6.50;99.90
21267;DHT22;10791;53.108;18.326;2023-10-19T21:21:41;6.50;99.90
21267;DHT22;10791;53.108;18.326;2023-10-19T21:26:46;6.50;99.90
21267;DHT22;10791;53.108;18.326;2023-10-19T21:31:50;6.50;99.90
21267;DHT22;10791;53.108;18.326;2023-10-19T21:36:53;6.60;99.90
21267;DHT22;10791;53.108;18.326;2023-10-19T21:41:56;6.50;99.90
21267;DHT22;10791;53.108;18.326;2023-10-19T21:47:00;6.50;99.90
21267;DHT22;10791;53.108;18.326;2023-10-19T21:52:04;6.60;99.90
21267;DHT22;10791;53.108;18.326;2023-10-19T21:57:07;6.50;99.90
21267;DHT22;10791;53.108;18.326;2023-10-19T22:02:11;6.40;99.90
21267;DHT22;10791;53.108;18.326;2023-10-19T22:07:14;6.40;99.90
21267;DHT22;10791;53.108;18.326;2023-10-19T22:12:18;6.40;99.90
21267;DHT22;10791;53.108;18.326;2023-10-19T22:17:21;6.40;99.90
21267;DHT22;10791;53.108;18.326;2023-10-19T22:22:26;6.40;99.90
21267;DHT22;10791;53.108;18.326;2023-10-19T22:27:29;6.40;99.90
21267;DHT22;10791;53.108;18.326;2023-10-19T22:32:34;6.30;99.90
21267;DHT22;10791;53.108;18.326;2023-10-19T22:37:39;6.30;99.90
21267;DHT22;10791;53.108;18.326;2023-10-19T22:42:42;6.30;99.90
21267;DHT22;10791;53.108;18.326;2023-10-19T22:47:46;6.30;99.90
21267;DHT22;10791;53.108;18.326;2023-10-19T22:52:49;6.30;99.90
21267;DHT22;10791;53.108;18.326;2023-10-19T22:57:53;6.40;99.90
21267;DHT22;10791;53.108;18.326;2023-10-19T23:02:56;6.40;99.90
21267;DHT22;10791;53.108;18.326;2023-10-19T23:08:00;6.40;99.90
21267;DHT22;10791;53.108;18.326;2023-10-19T23:13:04;6.40;99.90
21267;DHT22;10791;53.108;18.326;2023-10-19T23:18:07;6.30;99.90
21267;DHT22;10791;53.108;18.326;2023-10-19T23:23:14;6.30;99.90
21267;DHT22;10791;53.108;18.326;2023-10-19T23:28:19;6.40;99.90
21267;DHT22;10791;53.108;18.326;2023-10-19T23:33:23;6.30;99.90
21267;DHT22;10791;53.108;18.326;2023-10-19T23:38:27;6.30;99.90
21267;DHT22;10791;53.108;18.326;2023-10-19T23:43:30;6.20;99.90
21267;DHT22;10791;53.108;18.326;2023-10-19T23:48:33;6.20;99.90
21267;DHT22;10791;53.108;18.326;2023-10-19T23:53:37;6.30;99.90
21267;DHT22;10791;53.108;18.326;2023-10-19T23:58:41;6.30;99.90
